Warroad International-Carlson, MN

1:19 PM CST on March 03, 2015 (GMT -0600)
Baudette International | Change Station
CLOSE
Current Station
Airport
Location: Baudette,
Elevation: 1083 ft
Nearby Weather Stations

Elev 1083 ft 48.73 °N, 94.61 °W | Updated 26 minutes ago

Mostly Cloudy
Mostly Cloudy
12 °F
Feels Like -6 °F
N
21
Wind Variable Wind from WNW
Gusts 31 mph

Today
High -- | Low -- °F
--% Chance of Precip.
Yesterday
High -- | Low -- °F
Precip. -- in
6:59 AM 6:07 PM
Waxing Gibbous, 97% visible
Pressure 29.77 in
Visibility 8.0 miles
Clouds Few 2900 ft
Few 3900 ft
Windchill -6 °F
Dew Point -2 °F
Humidity 53%
Rainfall 0.00 in
Snow Depth Not available.
UV 4 out of 12
Pollen .10 out of 12
Air Quality Not available.
Flu Activity Not available.
METAR KBDE 031853Z AUTO 30018G27KT 8SM FEW029 FEW039 M11/M19 A2970 RMK AO2 PK WND 31028/1831 SLP081 T11111189 TSNO

More Conditions Fewer Conditions

Pressure 29.77 in
Visibility 8.0 miles
Clouds Few 2900 ft
Few 3900 ft
Windchill -6 °F
Dew Point -2 °F
Humidity 53%
Rainfall 0.00 in
Snow Depth Not available.
UV 4 out of 12
Pollen .10 out of 12
Air Quality Not available.
Flu Activity Not available.
METAR KBDE 031853Z AUTO 30018G27KT 8SM FEW029 FEW039 M11/M19 A2970 RMK AO2 PK WND 31028/1831 SLP081 T11111189 TSNO

More Conditions Fewer Conditions

10-Day Weather Forecast

Almanac

Astronomy

Mar. 03, 2015 Rise Set
Actual Time
Civil Twilight
Nautical Twilight
Astronomical Twilight
Moon
Length of Visible Light
Length of Day
Tomorrow will be .
, % of the Moon is Illuminated

Today's Extremes

State Highs State Lows

Community

WunderPhotos

Upload Photos

1,802,201 photos uploaded!

WunderBlogs® & News

Nearby

Air Quality

  Air Quality AQ Index Pollutant
Not available.

Snow Depth

Station Depth Elevation

Earthquake Activity

City Distance Mag. Time & Date
Minimum magnitude displayed is 2.5.

Coastal Water Temperatures

Place Temperature

Nearby Weather Stations